createdAt,value
2018-06-03T00:00:05.077Z,980.33
2018-06-03T00:01:05.997Z,980.24
2018-06-03T00:02:05.917Z,980.41
2018-06-03T00:03:10.872Z,980.44
2018-06-03T00:04:05.860Z,980.41
2018-06-03T00:05:05.548Z,980.44
2018-06-03T00:06:05.620Z,980.36
2018-06-03T00:07:05.624Z,980.56
2018-06-03T00:08:05.242Z,980.50
2018-06-03T00:09:05.455Z,980.50
2018-06-03T00:10:05.537Z,980.42
2018-06-03T00:11:05.170Z,980.45
2018-06-03T00:12:05.671Z,980.59
2018-06-03T00:13:06.924Z,980.42
2018-06-03T00:14:05.958Z,980.45
2018-06-03T00:15:05.689Z,980.42
2018-06-03T00:16:06.610Z,980.50
2018-06-03T00:17:05.923Z,980.45
2018-06-03T00:18:05.780Z,980.45
2018-06-03T00:19:05.419Z,980.53
2018-06-03T00:20:05.254Z,980.39
2018-06-03T00:21:05.206Z,980.45
2018-06-03T00:22:05.482Z,980.53
2018-06-03T00:23:05.240Z,980.25
2018-06-03T00:24:05.297Z,980.48
2018-06-03T00:25:06.002Z,980.31
2018-06-03T00:26:05.951Z,980.42
2018-06-03T00:27:10.461Z,980.36
2018-06-03T00:28:05.521Z,980.39
2018-06-03T00:29:05.837Z,980.48
2018-06-03T00:30:10.042Z,980.42
2018-06-03T00:31:05.366Z,980.45
2018-06-03T00:32:05.285Z,980.37
2018-06-03T00:33:05.408Z,980.45
2018-06-03T00:34:05.764Z,980.42
2018-06-03T00:35:05.841Z,980.34
2018-06-03T00:36:05.766Z,980.25
2018-06-03T00:37:06.092Z,980.51
2018-06-03T00:38:06.699Z,980.43
2018-06-03T00:39:05.361Z,980.37
2018-06-03T00:40:05.338Z,980.54
2018-06-03T00:41:05.527Z,980.43
2018-06-03T00:42:05.622Z,980.49
2018-06-03T00:43:05.475Z,980.43
2018-06-03T00:44:05.033Z,980.40
2018-06-03T00:45:05.112Z,980.46
2018-06-03T00:46:05.809Z,980.37
2018-06-03T00:47:05.471Z,980.52
2018-06-03T00:48:06.279Z,980.49
2018-06-03T00:49:05.507Z,980.46
2018-06-03T00:50:05.607Z,980.58
2018-06-03T00:51:06.279Z,980.49
2018-06-03T00:52:05.872Z,980.58
2018-06-03T00:53:05.752Z,980.40
2018-06-03T00:54:05.796Z,980.46
2018-06-03T00:55:05.469Z,980.43
2018-06-03T00:56:05.233Z,980.44
2018-06-03T00:57:05.240Z,980.32
2018-06-03T00:58:05.353Z,980.41
2018-06-03T00:59:05.255Z,980.32
2018-06-03T01:00:05.363Z,980.41
2018-06-03T01:01:05.609Z,980.35
2018-06-03T01:02:05.369Z,980.38
2018-06-03T01:03:05.830Z,980.21
2018-06-03T01:04:05.246Z,980.26
2018-06-03T01:05:05.328Z,980.24
2018-06-03T01:06:05.416Z,980.29
2018-06-03T01:07:05.194Z,980.27
2018-06-03T01:08:05.656Z,980.29
2018-06-03T01:09:05.338Z,980.35
2018-06-03T01:10:05.053Z,980.32
2018-06-03T01:11:05.513Z,980.41
2018-06-03T01:12:05.762Z,980.35
2018-06-03T01:13:05.849Z,980.27
2018-06-03T01:14:05.321Z,980.35
2018-06-03T01:15:10.930Z,980.35
2018-06-03T01:16:05.875Z,980.24
2018-06-03T01:17:05.724Z,980.21
2018-06-03T01:18:05.822Z,980.27
2018-06-03T01:19:05.582Z,980.16
2018-06-03T01:20:05.310Z,980.36
2018-06-03T01:21:05.018Z,980.21
2018-06-03T01:22:05.892Z,980.27
2018-06-03T01:23:05.348Z,980.42
2018-06-03T01:24:05.842Z,980.24
2018-06-03T01:25:05.564Z,980.24
2018-06-03T01:26:05.622Z,980.14
2018-06-03T01:27:05.401Z,980.08
2018-06-03T01:28:05.455Z,980.30
2018-06-03T01:29:10.480Z,980.14
2018-06-03T01:30:05.441Z,980.28
2018-06-03T01:31:10.654Z,980.22
2018-06-03T01:32:06.055Z,980.11
2018-06-03T01:33:05.350Z,980.17
2018-06-03T01:34:05.446Z,980.08
2018-06-03T01:35:05.726Z,980.28
2018-06-03T01:36:05.594Z,980.31
2018-06-03T01:37:05.779Z,980.22
2018-06-03T01:38:05.712Z,980.25
2018-06-03T01:39:05.647Z,980.22
2018-06-03T01:40:05.725Z,980.09
2018-06-03T01:41:05.811Z,980.15
2018-06-03T01:42:05.339Z,980.28
2018-06-03T01:43:05.976Z,980.06
2018-06-03T01:44:05.779Z,980.18
2018-06-03T01:45:05.466Z,980.09
2018-06-03T01:46:06.588Z,980.09
2018-06-03T01:47:05.664Z,980.09
2018-06-03T01:48:05.766Z,980.09
2018-06-03T01:49:05.452Z,980.06
2018-06-03T01:50:05.135Z,980.00
2018-06-03T01:51:05.966Z,980.12
2018-06-03T01:52:05.825Z,980.03
2018-06-03T01:53:05.676Z,980.01
2018-06-03T01:54:05.732Z,979.98
2018-06-03T01:55:05.443Z,980.09
2018-06-03T01:56:05.507Z,980.04
2018-06-03T01:57:05.970Z,979.92
2018-06-03T01:58:05.656Z,980.09
2018-06-03T01:59:10.746Z,979.92
2018-06-03T02:00:05.805Z,980.04
2018-06-03T02:01:06.161Z,980.10
2018-06-03T02:02:05.595Z,980.01
2018-06-03T02:03:06.265Z,979.90
2018-06-03T02:04:05.896Z,979.95
2018-06-03T02:05:05.568Z,979.98
2018-06-03T02:06:05.150Z,979.87
2018-06-03T02:07:05.292Z,979.87
2018-06-03T02:08:05.653Z,979.93
2018-06-03T02:09:05.474Z,979.93
2018-06-03T02:10:05.359Z,979.99
2018-06-03T02:11:05.472Z,980.04
2018-06-03T02:12:05.943Z,980.10
2018-06-03T02:13:05.900Z,979.99
2018-06-03T02:14:05.673Z,980.02
2018-06-03T02:15:05.845Z,979.99
2018-06-03T02:16:05.759Z,979.96
2018-06-03T02:17:06.004Z,980.02
2018-06-03T02:18:05.267Z,979.99
2018-06-03T02:19:05.203Z,979.88
2018-06-03T02:20:05.810Z,979.96
2018-06-03T02:21:05.666Z,980.02
2018-06-03T02:22:05.546Z,979.91
2018-06-03T02:23:05.753Z,980.02
2018-06-03T02:24:05.795Z,980.02
2018-06-03T02:25:05.730Z,980.02
2018-06-03T02:26:06.024Z,980.11
2018-06-03T02:27:06.137Z,980.25
2018-06-03T02:28:06.078Z,979.97
2018-06-03T02:29:06.673Z,980.14
2018-06-03T02:30:05.623Z,980.08
2018-06-03T02:31:05.337Z,979.88
2018-06-03T02:32:05.283Z,980.08
2018-06-03T02:33:05.804Z,980.03
2018-06-03T02:34:05.325Z,979.97
2018-06-03T02:35:05.056Z,980.09
2018-06-03T02:36:05.736Z,980.12
2018-06-03T02:37:05.947Z,980.12
2018-06-03T02:38:05.950Z,980.09
2018-06-03T02:39:06.418Z,980.09
2018-06-03T02:40:10.144Z,980.03
2018-06-03T02:41:05.078Z,980.06
2018-06-03T02:42:05.534Z,980.00
2018-06-03T02:43:05.475Z,980.12
2018-06-03T02:44:10.036Z,980.28
2018-06-03T02:45:05.364Z,980.03
2018-06-03T02:46:05.839Z,980.12
2018-06-03T02:47:06.267Z,980.18
2018-06-03T02:48:05.103Z,980.12
2018-06-03T02:49:10.101Z,980.09
2018-06-03T02:50:04.887Z,980.03
2018-06-03T02:51:05.493Z,980.09
2018-06-03T02:52:05.592Z,980.06
2018-06-03T02:53:06.518Z,980.04
2018-06-03T02:54:05.912Z,980.09
2018-06-03T02:55:05.394Z,980.01
2018-06-03T02:56:05.552Z,980.04
2018-06-03T02:57:05.427Z,980.12
2018-06-03T02:58:10.791Z,980.10
2018-06-03T02:59:05.918Z,980.12
2018-06-03T03:00:05.647Z,980.26
2018-06-03T03:01:05.779Z,980.18
2018-06-03T03:02:05.640Z,980.26
2018-06-03T03:03:05.037Z,980.23
2018-06-03T03:04:05.820Z,980.23
2018-06-03T03:05:10.843Z,980.23
2018-06-03T03:06:07.240Z,980.21
2018-06-03T03:07:05.352Z,980.16
2018-06-03T03:08:05.326Z,980.13
2018-06-03T03:09:06.615Z,980.26
2018-06-03T03:10:05.018Z,980.21
2018-06-03T03:11:05.737Z,980.26
2018-06-03T03:12:05.611Z,980.26
2018-06-03T03:13:05.598Z,980.29
2018-06-03T03:14:05.370Z,980.38
2018-06-03T03:15:05.009Z,980.26
2018-06-03T03:16:06.360Z,980.26
2018-06-03T03:17:06.174Z,980.24
2018-06-03T03:18:05.397Z,980.21
2018-06-03T03:19:05.536Z,980.29
2018-06-03T03:20:05.541Z,980.21
2018-06-03T03:21:05.853Z,980.32
2018-06-03T03:22:05.101Z,980.16
2018-06-03T03:23:05.106Z,980.30
2018-06-03T03:24:05.275Z,980.27
2018-06-03T03:25:05.688Z,980.24
2018-06-03T03:26:10.122Z,980.29
2018-06-03T03:27:05.744Z,980.29
2018-06-03T03:28:05.911Z,980.38
2018-06-03T03:29:05.648Z,980.26
2018-06-03T03:30:12.550Z,980.35
2018-06-03T03:31:05.080Z,980.35
2018-06-03T03:32:05.157Z,980.35
2018-06-03T03:33:05.077Z,980.35
2018-06-03T03:34:05.089Z,980.38
2018-06-03T03:35:05.622Z,980.35
2018-06-03T03:36:05.079Z,980.32
2018-06-03T03:37:11.368Z,980.35
2018-06-03T03:38:05.471Z,980.24
2018-06-03T03:39:05.806Z,980.21
2018-06-03T03:40:05.709Z,980.29
2018-06-03T03:41:05.214Z,980.26
2018-06-03T03:42:05.299Z,980.29
2018-06-03T03:43:05.963Z,980.23
2018-06-03T03:44:05.285Z,980.18
2018-06-03T03:45:05.598Z,980.26
2018-06-03T03:46:05.631Z,980.35
2018-06-03T03:47:05.841Z,980.23
2018-06-03T03:48:05.728Z,980.38
2018-06-03T03:49:10.549Z,980.13
2018-06-03T03:50:05.436Z,980.29
2018-06-03T03:51:05.487Z,980.43
2018-06-03T03:52:05.317Z,980.32
2018-06-03T03:53:05.200Z,980.35
2018-06-03T03:54:10.299Z,980.34
2018-06-03T03:55:05.398Z,980.23
2018-06-03T03:56:05.673Z,980.43
2018-06-03T03:57:06.426Z,980.18
2018-06-03T03:58:05.175Z,980.31
2018-06-03T03:59:05.128Z,980.26
2018-06-03T04:00:05.204Z,980.34
2018-06-03T04:01:05.207Z,980.31
2018-06-03T04:02:05.379Z,980.29
2018-06-03T04:03:05.352Z,980.37
2018-06-03T04:04:05.400Z,980.26
2018-06-03T04:05:05.698Z,980.43
2018-06-03T04:06:05.823Z,980.34
2018-06-03T04:07:05.686Z,980.18
2018-06-03T04:08:05.345Z,980.15
2018-06-03T04:09:05.342Z,980.25
2018-06-03T04:10:05.712Z,980.31
2018-06-03T04:11:05.910Z,980.31
2018-06-03T04:12:05.381Z,980.31
2018-06-03T04:13:05.469Z,980.28
2018-06-03T04:14:04.962Z,980.48
2018-06-03T04:15:05.878Z,980.25
2018-06-03T04:16:07.220Z,980.33
2018-06-03T04:17:05.730Z,980.30
2018-06-03T04:18:05.629Z,980.33
2018-06-03T04:19:06.002Z,980.39
2018-06-03T04:20:05.681Z,980.33
2018-06-03T04:21:05.955Z,980.27
2018-06-03T04:22:05.424Z,980.35
2018-06-03T04:23:05.465Z,980.41
2018-06-03T04:24:05.973Z,980.32
2018-06-03T04:25:06.073Z,980.46
2018-06-03T04:26:05.189Z,980.46
2018-06-03T04:27:06.116Z,980.37
2018-06-03T04:28:05.502Z,980.34
2018-06-03T04:29:05.955Z,980.40
2018-06-03T04:30:10.972Z,980.28
2018-06-03T04:31:06.139Z,980.39
2018-06-03T04:32:06.384Z,980.30
2018-06-03T04:33:05.710Z,980.30
2018-06-03T04:34:05.696Z,980.38
2018-06-03T04:35:05.724Z,980.30
2018-06-03T04:36:05.573Z,980.32
2018-06-03T04:37:06.223Z,980.38
2018-06-03T04:38:05.541Z,980.29
2018-06-03T04:39:05.071Z,980.34
2018-06-03T04:40:05.492Z,980.36
2018-06-03T04:41:05.752Z,980.45
2018-06-03T04:42:06.007Z,980.30
2018-06-03T04:43:05.767Z,980.35
2018-06-03T04:44:06.021Z,980.37
2018-06-03T04:45:05.803Z,980.49
2018-06-03T04:46:05.988Z,980.45
2018-06-03T04:47:06.040Z,980.30
2018-06-03T04:48:05.282Z,980.44
2018-06-03T04:49:05.483Z,980.47
2018-06-03T04:50:05.327Z,980.52
2018-06-03T04:51:05.612Z,980.43
2018-06-03T04:52:05.605Z,980.43
2018-06-03T04:53:05.417Z,980.39
2018-06-03T04:54:05.837Z,980.51
2018-06-03T04:55:05.377Z,980.39
2018-06-03T04:56:05.452Z,980.47
2018-06-03T04:57:05.272Z,980.47
2018-06-03T04:58:05.173Z,980.40
2018-06-03T04:59:05.497Z,980.46
2018-06-03T05:00:05.867Z,980.48
2018-06-03T05:01:10.430Z,980.42
2018-06-03T05:02:05.556Z,980.39
2018-06-03T05:03:05.547Z,980.53
2018-06-03T05:04:05.405Z,980.50
2018-06-03T05:05:05.362Z,980.38
2018-06-03T05:06:06.067Z,980.40
2018-06-03T05:07:06.064Z,980.43
2018-06-03T05:08:05.798Z,980.43
2018-06-03T05:09:05.770Z,980.45
2018-06-03T05:10:05.497Z,980.42
2018-06-03T05:11:05.627Z,980.45
2018-06-03T05:12:05.441Z,980.59
2018-06-03T05:13:05.240Z,980.47
2018-06-03T05:14:05.878Z,980.53
2018-06-03T05:15:10.432Z,980.56
2018-06-03T05:16:05.316Z,980.47
2018-06-03T05:17:05.419Z,980.44
2018-06-03T05:18:05.485Z,980.55
2018-06-03T05:19:05.695Z,980.49
2018-06-03T05:20:05.645Z,980.46
2018-06-03T05:21:05.941Z,980.49
2018-06-03T05:22:06.105Z,980.51
2018-06-03T05:23:05.785Z,980.54
2018-06-03T05:24:05.513Z,980.51
2018-06-03T05:25:05.997Z,980.57
2018-06-03T05:26:05.149Z,980.48
2018-06-03T05:27:05.505Z,980.39
2018-06-03T05:28:05.499Z,980.57
2018-06-03T05:29:05.651Z,980.59
2018-06-03T05:30:05.264Z,980.33
2018-06-03T05:31:05.313Z,980.48
2018-06-03T05:32:05.858Z,980.44
2018-06-03T05:33:05.973Z,980.50
2018-06-03T05:34:05.671Z,980.44
2018-06-03T05:35:05.122Z,980.58
2018-06-03T05:36:05.367Z,980.52
2018-06-03T05:37:05.621Z,980.49
2018-06-03T05:38:05.540Z,980.49
2018-06-03T05:39:05.147Z,980.55
2018-06-03T05:40:05.504Z,980.37
2018-06-03T05:41:05.850Z,980.52
2018-06-03T05:42:05.520Z,980.49
2018-06-03T05:43:05.657Z,980.43
2018-06-03T05:44:05.736Z,980.51
2018-06-03T05:45:06.160Z,980.57
2018-06-03T05:46:05.928Z,980.45
2018-06-03T05:47:05.810Z,980.53
2018-06-03T05:48:05.902Z,980.64
2018-06-03T05:49:05.236Z,980.61
2018-06-03T05:50:05.792Z,980.46
2018-06-03T05:51:05.440Z,980.66
2018-06-03T05:52:05.934Z,980.45
2018-06-03T05:53:05.168Z,980.59
2018-06-03T05:54:05.433Z,980.53
2018-06-03T05:55:05.955Z,980.56
2018-06-03T05:56:05.783Z,980.61
2018-06-03T05:57:05.548Z,980.55
2018-06-03T05:58:05.937Z,980.63
2018-06-03T05:59:10.696Z,980.63
2018-06-03T06:00:05.235Z,980.66
2018-06-03T06:01:05.913Z,980.65
2018-06-03T06:02:05.510Z,980.53
2018-06-03T06:03:06.552Z,980.65
2018-06-03T06:04:05.668Z,980.53
2018-06-03T06:05:05.455Z,980.62
2018-06-03T06:06:05.679Z,980.67
2018-06-03T06:07:05.912Z,980.64
2018-06-03T06:08:05.981Z,980.55
2018-06-03T06:09:05.817Z,980.72
2018-06-03T06:10:05.529Z,980.75
2018-06-03T06:11:05.203Z,980.66
2018-06-03T06:12:05.477Z,980.68
2018-06-03T06:13:10.202Z,980.68
2018-06-03T06:14:05.135Z,980.62
2018-06-03T06:15:06.014Z,980.70
2018-06-03T06:16:05.895Z,980.76
2018-06-03T06:17:10.517Z,980.67
2018-06-03T06:18:05.437Z,980.75
2018-06-03T06:19:05.418Z,980.78
2018-06-03T06:20:05.607Z,980.86
2018-06-03T06:21:05.724Z,980.92
2018-06-03T06:22:05.699Z,980.77
2018-06-03T06:23:06.465Z,980.88
2018-06-03T06:24:06.843Z,980.76
2018-06-03T06:25:05.981Z,980.64
2018-06-03T06:26:05.431Z,980.87
2018-06-03T06:27:05.970Z,980.75
2018-06-03T06:28:05.353Z,980.69
2018-06-03T06:29:05.560Z,980.66
2018-06-03T06:30:05.077Z,980.89
2018-06-03T06:31:05.636Z,980.89
2018-06-03T06:32:05.904Z,980.68
2018-06-03T06:33:05.905Z,980.71
2018-06-03T06:34:05.086Z,980.86
2018-06-03T06:35:05.597Z,980.91
2018-06-03T06:36:05.941Z,980.85
2018-06-03T06:37:05.309Z,980.79
2018-06-03T06:38:05.266Z,980.91
2018-06-03T06:39:05.893Z,980.79
2018-06-03T06:40:05.738Z,980.81
2018-06-03T06:41:05.302Z,980.72
2018-06-03T06:42:05.061Z,980.72
2018-06-03T06:43:06.692Z,980.75
2018-06-03T06:44:05.772Z,980.78
2018-06-03T06:45:05.523Z,980.72
2018-06-03T06:46:05.452Z,980.83
2018-06-03T06:47:05.912Z,980.86
2018-06-03T06:48:05.448Z,980.71
2018-06-03T06:49:05.269Z,980.77
2018-06-03T06:50:05.766Z,980.83
2018-06-03T06:51:05.560Z,980.80
2018-06-03T06:52:05.065Z,980.85
2018-06-03T06:53:05.637Z,980.97
2018-06-03T06:54:10.639Z,980.88
2018-06-03T06:55:05.179Z,980.76
2018-06-03T06:56:05.422Z,980.82
2018-06-03T06:57:05.229Z,980.94
2018-06-03T06:58:06.077Z,980.94
2018-06-03T06:59:10.207Z,980.94
2018-06-03T07:00:05.422Z,980.96
2018-06-03T07:01:05.811Z,980.99
2018-06-03T07:02:05.625Z,980.99
2018-06-03T07:03:05.973Z,980.96
2018-06-03T07:04:05.907Z,980.87
2018-06-03T07:05:06.011Z,980.96
2018-06-03T07:06:05.504Z,980.87
2018-06-03T07:07:05.628Z,980.87
2018-06-03T07:08:05.401Z,980.95
2018-06-03T07:09:05.500Z,980.92
2018-06-03T07:10:05.506Z,980.95
2018-06-03T07:11:05.370Z,981.01
2018-06-03T07:12:05.963Z,980.92
2018-06-03T07:13:05.701Z,980.92
2018-06-03T07:14:05.421Z,980.89
2018-06-03T07:15:05.952Z,980.89
2018-06-03T07:16:05.599Z,980.91
2018-06-03T07:17:05.605Z,980.80
2018-06-03T07:18:05.773Z,980.88
2018-06-03T07:19:05.797Z,980.97
2018-06-03T07:20:06.009Z,980.91
2018-06-03T07:21:05.723Z,980.88
2018-06-03T07:22:05.982Z,980.85
2018-06-03T07:23:05.958Z,980.82
2018-06-03T07:24:06.283Z,980.79
2018-06-03T07:25:05.468Z,980.85
2018-06-03T07:26:05.215Z,980.87
2018-06-03T07:27:05.352Z,980.93
2018-06-03T07:28:05.573Z,980.76
2018-06-03T07:29:05.102Z,980.84
2018-06-03T07:30:05.360Z,980.85
2018-06-03T07:31:05.508Z,980.85
2018-06-03T07:32:05.722Z,980.87
2018-06-03T07:33:06.554Z,980.81
2018-06-03T07:34:05.129Z,980.78
2018-06-03T07:35:05.223Z,980.78
2018-06-03T07:36:05.347Z,980.90
2018-06-03T07:37:05.324Z,980.87
2018-06-03T07:38:05.982Z,980.75
2018-06-03T07:39:05.141Z,980.81
2018-06-03T07:40:05.500Z,980.81
2018-06-03T07:41:05.771Z,980.81
2018-06-03T07:42:04.922Z,980.78
2018-06-03T07:43:05.416Z,980.78
2018-06-03T07:44:05.685Z,980.89
2018-06-03T07:45:05.395Z,980.95
2018-06-03T07:46:05.007Z,980.86
2018-06-03T07:47:05.728Z,980.89
2018-06-03T07:48:05.478Z,980.83
2018-06-03T07:49:05.545Z,980.77
2018-06-03T07:50:05.678Z,980.83
2018-06-03T07:51:05.687Z,980.86
2018-06-03T07:52:05.414Z,980.86
2018-06-03T07:53:05.655Z,980.81
2018-06-03T07:54:05.546Z,980.81
2018-06-03T07:55:05.177Z,980.84
2018-06-03T07:56:05.463Z,980.96
2018-06-03T07:57:05.081Z,980.84
2018-06-03T07:58:05.794Z,980.78
2018-06-03T07:59:05.491Z,980.84
2018-06-03T08:00:05.741Z,980.81
2018-06-03T08:01:05.644Z,980.84
2018-06-03T08:02:06.170Z,980.81
2018-06-03T08:03:06.006Z,980.75
2018-06-03T08:04:05.351Z,980.98
2018-06-03T08:05:05.725Z,980.80
2018-06-03T08:06:06.013Z,980.86
2018-06-03T08:07:05.810Z,980.89
2018-06-03T08:08:05.027Z,980.77
2018-06-03T08:09:05.119Z,980.80
2018-06-03T08:10:05.320Z,980.86
2018-06-03T08:11:06.029Z,980.98
2018-06-03T08:12:05.406Z,980.84
2018-06-03T08:13:05.553Z,980.72
2018-06-03T08:14:05.365Z,980.75
2018-06-03T08:15:11.424Z,980.82
2018-06-03T08:16:05.514Z,980.85
2018-06-03T08:17:05.894Z,980.82
2018-06-03T08:18:05.348Z,980.74
2018-06-03T08:19:05.374Z,980.82
2018-06-03T08:20:05.418Z,980.85
2018-06-03T08:21:05.084Z,980.85
2018-06-03T08:22:05.696Z,980.82
2018-06-03T08:23:05.156Z,980.94
2018-06-03T08:24:05.859Z,980.74
2018-06-03T08:25:05.659Z,980.80
2018-06-03T08:26:05.801Z,980.74
2018-06-03T08:27:06.441Z,980.77
2018-06-03T08:28:05.311Z,980.72
2018-06-03T08:29:05.261Z,980.69
2018-06-03T08:30:05.411Z,980.93
2018-06-03T08:31:05.386Z,980.87
2018-06-03T08:32:05.242Z,980.72
2018-06-03T08:33:05.758Z,980.72
2018-06-03T08:34:05.558Z,980.87
2018-06-03T08:35:05.737Z,980.78
2018-06-03T08:36:05.889Z,980.84
2018-06-03T08:37:05.253Z,980.87
2018-06-03T08:38:05.511Z,980.75
2018-06-03T08:39:05.656Z,980.79
2018-06-03T08:40:05.195Z,980.82
2018-06-03T08:41:05.314Z,980.91
2018-06-03T08:42:05.344Z,980.82
2018-06-03T08:43:05.759Z,980.76
2018-06-03T08:44:05.876Z,980.79
2018-06-03T08:45:05.899Z,980.82
2018-06-03T08:46:05.594Z,980.87
2018-06-03T08:47:05.503Z,980.84
2018-06-03T08:48:10.994Z,980.87
2018-06-03T08:49:05.672Z,980.81
2018-06-03T08:50:05.421Z,980.72
2018-06-03T08:51:05.597Z,980.84
2018-06-03T08:52:06.332Z,980.75
2018-06-03T08:53:05.166Z,980.84
2018-06-03T08:54:05.727Z,980.90
2018-06-03T08:55:05.456Z,980.93
2018-06-03T08:56:05.873Z,980.90
2018-06-03T08:57:06.129Z,980.96
2018-06-03T08:58:06.071Z,980.87
2018-06-03T08:59:05.995Z,980.87
2018-06-03T09:00:05.660Z,980.81
2018-06-03T09:01:05.775Z,980.93
2018-06-03T09:02:05.055Z,980.87
2018-06-03T09:03:05.990Z,980.96
2018-06-03T09:04:05.990Z,980.90
2018-06-03T09:05:05.265Z,980.82
2018-06-03T09:06:05.513Z,980.99
2018-06-03T09:07:05.447Z,980.94
2018-06-03T09:08:05.179Z,980.85
2018-06-03T09:09:05.750Z,981.00
2018-06-03T09:10:05.632Z,980.88
2018-06-03T09:11:05.621Z,980.82
2018-06-03T09:12:10.636Z,980.86
2018-06-03T09:13:05.742Z,980.86
2018-06-03T09:14:05.910Z,980.80
2018-06-03T09:15:05.569Z,980.77
2018-06-03T09:16:05.482Z,980.95
2018-06-03T09:17:06.131Z,980.86
2018-06-03T09:18:05.344Z,980.92
2018-06-03T09:19:05.327Z,980.83
2018-06-03T09:20:05.271Z,980.89
2018-06-03T09:21:05.723Z,980.86
2018-06-03T09:22:05.808Z,980.86
2018-06-03T09:23:05.798Z,980.81
2018-06-03T09:24:07.545Z,980.81
2018-06-03T09:25:06.155Z,980.78
2018-06-03T09:26:05.921Z,980.80
2018-06-03T09:27:05.728Z,980.86
2018-06-03T09:28:05.772Z,980.77
2018-06-03T09:29:05.749Z,980.80
2018-06-03T09:30:05.626Z,980.83
2018-06-03T09:31:05.294Z,980.83
2018-06-03T09:32:05.813Z,980.86
2018-06-03T09:33:05.292Z,980.80
2018-06-03T09:34:05.962Z,980.74
2018-06-03T09:35:05.896Z,980.80
2018-06-03T09:36:05.573Z,980.83
2018-06-03T09:37:05.757Z,980.72
2018-06-03T09:38:05.957Z,980.75
2018-06-03T09:39:05.697Z,980.81
2018-06-03T09:40:05.313Z,980.81
2018-06-03T09:41:05.394Z,980.75
2018-06-03T09:42:05.528Z,980.72
2018-06-03T09:43:05.922Z,980.84
2018-06-03T09:44:06.048Z,980.78
2018-06-03T09:45:05.584Z,980.69
2018-06-03T09:46:10.279Z,980.81
2018-06-03T09:47:05.887Z,980.81
2018-06-03T09:48:05.983Z,980.72
2018-06-03T09:49:05.458Z,980.75
2018-06-03T09:50:05.409Z,980.83
2018-06-03T09:51:05.503Z,980.74
2018-06-03T09:52:05.083Z,980.71
2018-06-03T09:53:06.208Z,980.77
2018-06-03T09:54:06.214Z,980.85
2018-06-03T09:55:05.580Z,980.73
2018-06-03T09:56:05.743Z,980.76
2018-06-03T09:57:05.721Z,980.76
2018-06-03T09:58:06.037Z,980.79
2018-06-03T09:59:05.689Z,980.76
2018-06-03T10:00:05.407Z,980.79
2018-06-03T10:01:05.605Z,980.82
2018-06-03T10:02:05.537Z,980.88
2018-06-03T10:03:05.416Z,980.73
2018-06-03T10:04:05.322Z,980.73
2018-06-03T10:05:05.979Z,980.68
2018-06-03T10:06:05.373Z,980.79
2018-06-03T10:07:10.235Z,980.74
2018-06-03T10:08:06.046Z,980.62
2018-06-03T10:09:05.176Z,980.77
2018-06-03T10:10:05.261Z,980.59
2018-06-03T10:11:05.444Z,980.62
2018-06-03T10:12:05.390Z,980.65
2018-06-03T10:13:05.593Z,980.71
2018-06-03T10:14:05.433Z,980.62
2018-06-03T10:15:10.412Z,980.65
2018-06-03T10:16:05.674Z,980.62
2018-06-03T10:17:05.945Z,980.47
2018-06-03T10:18:05.919Z,980.61
2018-06-03T10:19:05.928Z,980.52
2018-06-03T10:20:06.111Z,980.52
2018-06-03T10:21:05.520Z,980.61
2018-06-03T10:22:05.761Z,980.55
2018-06-03T10:23:05.926Z,980.61
2018-06-03T10:24:05.449Z,980.49
2018-06-03T10:25:05.596Z,980.54
2018-06-03T10:26:05.626Z,980.42
2018-06-03T10:27:05.813Z,980.48
2018-06-03T10:28:05.931Z,980.51
2018-06-03T10:29:05.236Z,980.48
2018-06-03T10:30:05.345Z,980.42
2018-06-03T10:31:05.277Z,980.51
2018-06-03T10:32:05.325Z,980.57
2018-06-03T10:33:05.528Z,980.54
2018-06-03T10:34:05.789Z,980.45
2018-06-03T10:35:05.696Z,980.33
2018-06-03T10:36:05.721Z,980.50
2018-06-03T10:37:06.034Z,980.50
2018-06-03T10:38:05.576Z,980.53
2018-06-03T10:39:05.618Z,980.44
2018-06-03T10:40:05.247Z,980.44
2018-06-03T10:41:05.325Z,980.37
2018-06-03T10:42:06.487Z,980.34
2018-06-03T10:43:05.539Z,980.34
2018-06-03T10:44:05.723Z,980.34
2018-06-03T10:45:05.733Z,980.31
2018-06-03T10:46:05.111Z,980.31
2018-06-03T10:47:05.043Z,980.40
2018-06-03T10:48:05.966Z,980.31
2018-06-03T10:49:05.731Z,980.40
2018-06-03T10:50:05.472Z,980.34
2018-06-03T10:51:05.352Z,980.28
2018-06-03T10:52:05.421Z,980.40
2018-06-03T10:53:05.988Z,980.34
2018-06-03T10:54:05.735Z,980.34
2018-06-03T10:55:10.968Z,980.31
2018-06-03T10:56:11.159Z,980.25
2018-06-03T10:57:10.943Z,980.33
2018-06-03T10:58:05.165Z,980.39
2018-06-03T10:59:05.535Z,980.42
2018-06-03T11:00:05.591Z,980.27
2018-06-03T11:01:05.889Z,980.36
2018-06-03T11:02:05.362Z,980.30
2018-06-03T11:03:06.034Z,980.48
2018-06-03T11:04:05.822Z,980.42
2018-06-03T11:05:05.081Z,980.36
2018-06-03T11:06:05.315Z,980.24
2018-06-03T11:07:05.542Z,980.42
2018-06-03T11:08:05.775Z,980.47
2018-06-03T11:09:05.703Z,980.21
2018-06-03T11:10:05.516Z,980.33
2018-06-03T11:11:05.578Z,980.39
2018-06-03T11:12:08.981Z,980.33
2018-06-03T11:13:06.035Z,980.27
2018-06-03T11:14:05.212Z,980.27
2018-06-03T11:15:06.059Z,980.21
2018-06-03T11:16:05.209Z,980.24
2018-06-03T11:17:05.230Z,980.21
2018-06-03T11:18:05.260Z,980.24
2018-06-03T11:19:05.324Z,980.13
2018-06-03T11:20:05.309Z,980.07
2018-06-03T11:21:05.768Z,980.13
2018-06-03T11:22:06.035Z,980.24
2018-06-03T11:23:05.375Z,980.08
2018-06-03T11:24:05.571Z,979.99
2018-06-03T11:25:05.672Z,980.11
2018-06-03T11:26:06.486Z,980.05
2018-06-03T11:27:05.621Z,979.96
2018-06-03T11:28:05.309Z,980.08
2018-06-03T11:29:05.122Z,979.99
2018-06-03T11:30:05.184Z,980.02
2018-06-03T11:31:05.494Z,979.93
2018-06-03T11:32:05.272Z,979.90
2018-06-03T11:33:05.971Z,979.87
2018-06-03T11:34:06.153Z,979.98
2018-06-03T11:35:05.254Z,980.01
2018-06-03T11:36:05.566Z,979.89
2018-06-03T11:37:05.638Z,979.86
2018-06-03T11:38:05.684Z,979.86
2018-06-03T11:39:05.699Z,979.78
2018-06-03T11:40:05.606Z,979.84
2018-06-03T11:41:05.337Z,979.86
2018-06-03T11:42:05.350Z,979.83
2018-06-03T11:43:05.574Z,979.91
2018-06-03T11:44:05.538Z,980.03
2018-06-03T11:45:05.399Z,979.86
2018-06-03T11:46:06.066Z,979.83
2018-06-03T11:47:05.785Z,979.88
2018-06-03T11:48:05.593Z,979.83
2018-06-03T11:49:05.112Z,979.83
2018-06-03T11:50:05.921Z,979.78
2018-06-03T11:51:05.909Z,979.84
2018-06-03T11:52:05.444Z,979.76
2018-06-03T11:53:05.137Z,979.82
2018-06-03T11:54:06.110Z,979.85
2018-06-03T11:55:05.742Z,979.83
2018-06-03T11:56:05.730Z,979.80
2018-06-03T11:57:05.906Z,979.80
2018-06-03T11:58:05.752Z,979.75
2018-06-03T11:59:05.537Z,979.83
2018-06-03T12:00:05.230Z,979.80
2018-06-03T12:01:05.261Z,979.80
2018-06-03T12:02:05.423Z,979.86
2018-06-03T12:03:05.363Z,979.83
2018-06-03T12:04:05.243Z,979.80
2018-06-03T12:05:05.127Z,979.80
2018-06-03T12:06:05.588Z,979.77
2018-06-03T12:07:06.856Z,979.85
2018-06-03T12:08:07.325Z,979.79
2018-06-03T12:09:05.911Z,979.76
2018-06-03T12:10:05.010Z,979.79
2018-06-03T12:11:05.951Z,979.69
2018-06-03T12:12:05.669Z,979.75
2018-06-03T12:13:05.181Z,979.86
2018-06-03T12:14:05.814Z,979.62
2018-06-03T12:15:05.883Z,979.74
2018-06-03T12:16:05.922Z,979.80
2018-06-03T12:17:10.893Z,979.74
2018-06-03T12:18:05.846Z,979.67
2018-06-03T12:19:05.845Z,979.73
2018-06-03T12:20:05.791Z,979.76
2018-06-03T12:21:05.597Z,979.73
2018-06-03T12:22:05.414Z,979.73
2018-06-03T12:23:05.687Z,979.67
2018-06-03T12:24:05.350Z,979.64
2018-06-03T12:25:05.027Z,979.67
2018-06-03T12:26:05.416Z,979.76
2018-06-03T12:27:05.167Z,979.74
2018-06-03T12:28:05.271Z,979.65